Time;durP1;ratioP1;P1;durP2;ratioP2;P2;SDS_P1;SDS_P2;PMS_P1;PMS_P2;Temp;Humidity;BMP_temperature;BMP_pressure;BME280_temperature;BME280_humidity;BME280_pressure;Samples;Min_cycle;Max_cycle;Signal;HPM_P1;HPM_P2
2023/03/24 00:01:42;;;;;;;3.90;2.10;;;;;;;13.58;82.43;97298.06;5051593;28;20235;-75
2023/03/24 00:04:09;;;;;;;2.57;2.20;;;;;;;13.51;81.67;97289.00;5051517;28;20425;-75
2023/03/24 00:06:37;;;;;;;3.07;2.10;;;;;;;13.38;82.46;97285.84;5051951;28;20237;-77
2023/03/24 00:09:05;;;;;;;2.97;2.20;;;;;;;13.23;84.61;97281.94;5051118;28;20210;-75
2023/03/24 00:11:33;;;;;;;2.97;2.30;;;;;;;13.17;86.30;97287.81;5051341;28;20235;-75
2023/03/24 00:14:00;;;;;;;3.47;2.40;;;;;;;13.10;89.57;97292.88;5051210;28;20209;-75
2023/03/24 00:16:27;;;;;;;2.23;2.03;;;;;;;13.06;90.96;97280.84;5051313;28;20207;-75
2023/03/24 00:18:53;;;;;;;3.83;2.47;;;;;;;13.04;92.40;97287.28;5051202;28;20302;-75
2023/03/24 00:21:23;;;;;;;3.23;2.53;;;;;;;13.02;92.73;97278.63;5050839;28;20261;-77
2023/03/24 00:23:53;;;;;;;3.03;2.30;;;;;;;12.99;92.75;97285.06;5051202;28;20284;-77
2023/03/24 00:26:20;;;;;;;3.37;2.50;;;;;;;12.99;92.97;97285.06;5051249;28;20215;-77
2023/03/24 00:28:48;;;;;;;3.20;2.17;;;;;;;13.04;92.05;97281.97;5050847;28;20218;-76
2023/03/24 00:31:17;;;;;;;2.83;2.30;;;;;;;13.13;91.35;97267.84;5050746;28;20301;-76
2023/03/24 00:33:49;;;;;;;2.93;2.33;;;;;;;13.19;90.22;97260.16;5051634;28;20206;-76
2023/03/24 00:36:17;;;;;;;3.77;2.67;;;;;;;13.25;88.55;97254.28;5051037;28;20204;-77
2023/03/24 00:38:44;;;;;;;2.50;2.20;;;;;;;13.33;86.66;97246.44;5050516;28;20635;-76
2023/03/24 00:41:12;;;;;;;2.73;2.37;;;;;;;13.37;87.14;97241.66;5050839;28;20633;-77
2023/03/24 00:43:38;;;;;;;2.10;1.90;;;;;;;13.37;86.76;97241.66;5049870;28;20230;-77
2023/03/24 00:46:09;;;;;;;2.50;2.20;;;;;;;13.38;86.97;97227.44;5048755;28;20213;-77
2023/03/24 00:48:37;;;;;;;2.73;2.30;;;;;;;13.37;86.69;97231.06;5051360;28;20256;-76
2023/03/24 00:51:06;;;;;;;2.90;2.10;;;;;;;13.38;87.47;97238.06;5050481;28;20215;-76
2023/03/24 00:53:33;;;;;;;2.97;2.10;;;;;;;13.36;87.32;97224.94;5048391;28;20279;-76
2023/03/24 00:56:00;;;;;;;3.47;2.80;;;;;;;13.35;86.94;97215.28;5051255;28;20210;-76
2023/03/24 00:58:28;;;;;;;2.77;2.30;;;;;;;13.40;85.35;97214.84;5050945;28;20217;-76
2023/03/24 01:00:57;;;;;;;2.97;2.30;;;;;;;13.47;82.48;97197.34;5047812;28;20224;-76
2023/03/24 01:03:26;;;;;;;2.50;2.30;;;;;;;13.49;82.33;97192.72;5050686;28;20262;-76
2023/03/24 01:05:56;;;;;;;2.33;2.13;;;;;;;13.52;82.23;97187.16;5050899;28;20671;-76
2023/03/24 01:08:24;;;;;;;3.57;2.20;;;;;;;13.49;82.51;97182.13;5048401;28;20239;-76
2023/03/24 01:10:52;;;;;;;4.63;2.20;;;;;;;13.51;82.00;97177.50;5049968;28;20214;-77
2023/03/24 01:13:20;;;;;;;2.97;2.03;;;;;;;13.49;81.03;97166.19;5050303;28;20242;-77
2023/03/24 01:15:49;;;;;;;3.50;2.07;;;;;;;13.51;82.34;97166.91;5050966;28;20314;-75
2023/03/24 01:18:16;;;;;;;2.37;2.17;;;;;;;13.59;80.17;97156.38;5051206;28;20213;-76
2023/03/24 01:20:45;;;;;;;2.40;2.00;;;;;;;13.61;80.07;97159.69;5050443;28;20367;-78
2023/03/24 01:23:13;;;;;;;2.30;2.10;;;;;;;13.63;79.93;97147.94;5050600;28;20245;-76
2023/03/24 01:25:44;;;;;;;2.97;2.03;;;;;;;13.62;79.23;97145.47;5050664;28;20239;-76
2023/03/24 01:28:11;;;;;;;2.70;1.83;;;;;;;13.61;79.25;97133.16;5050752;28;20208;-77
2023/03/24 01:30:38;;;;;;;2.10;1.90;;;;;;;13.64;78.65;97136.34;5050343;28;20213;-76
2023/03/24 01:33:06;;;;;;;3.00;2.07;;;;;;;13.69;78.18;97130.59;5050771;28;20240;-76
2023/03/24 01:35:33;;;;;;;2.53;2.00;;;;;;;13.66;78.06;97125.56;5050711;28;20699;-76
2023/03/24 01:38:00;;;;;;;2.20;2.00;;;;;;;13.58;79.05;97138.78;5051218;28;20617;-76
2023/03/24 01:40:30;;;;;;;2.40;2.20;;;;;;;13.53;79.42;97133.06;5053185;28;20214;-76
2023/03/24 01:42:58;;;;;;;3.27;2.50;;;;;;;13.49;80.69;97139.63;5054416;28;20235;-77
2023/03/24 01:45:44;;;;;;;2.60;2.40;;;;;;;13.51;81.10;97137.69;5054252;28;20235;-76
2023/03/24 01:48:16;;;;;;;3.00;2.53;;;;;;;13.51;80.58;97122.59;5054138;28;20293;-76
2023/03/24 01:50:48;;;;;;;3.10;2.50;;;;;;;13.48;81.88;97116.75;5053776;28;20211;-76
2023/03/24 01:53:14;;;;;;;3.07;2.80;;;;;;;13.45;82.95;97122.34;5054278;28;20256;-76
2023/03/24 01:55:43;;;;;;;3.20;2.43;;;;;;;13.45;84.03;97130.31;5054199;28;20206;-76
2023/03/24 01:58:10;;;;;;;4.33;2.50;;;;;;;13.37;84.27;97135.50;5054069;28;20234;-77
2023/03/24 02:00:36;;;;;;;2.70;2.20;;;;;;;13.32;84.39;97137.78;5052094;28;20215;-76
2023/03/24 02:03:08;;;;;;;3.40;2.03;;;;;;;13.35;84.09;97126.88;5051911;28;20326;-76
2023/03/24 02:05:38;;;;;;;2.77;2.07;;;;;;;13.34;84.02;97127.84;5053882;28;20284;-77
2023/03/24 02:08:10;;;;;;;3.47;2.30;;;;;;;13.36;84.15;97123.22;5053633;28;20636;-76
2023/03/24 02:10:37;;;;;;;2.90;2.13;;;;;;;13.37;82.37;97120.44;5053245;28;20208;-76
2023/03/24 02:13:05;;;;;;;2.60;2.00;;;;;;;13.38;82.72;97121.28;5052676;28;20227;-76
2023/03/24 02:15:34;;;;;;;2.33;2.10;;;;;;;13.39;82.65;97117.66;5051029;28;20628;-76
2023/03/24 02:18:08;;;;;;;2.20;2.00;;;;;;;13.40;82.05;97114.00;5053155;28;20215;-76
2023/03/24 02:21:20;;;;;;;4.00;2.20;;;;;;;13.46;81.29;97111.56;5053026;28;20245;-76
2023/03/24 02:24:05;;;;;;;2.60;1.90;;;;;;;13.51;79.75;97109.31;5053361;28;20663;-76
2023/03/24 02:26:46;;;;;;;6.13;2.10;;;;;;;13.54;79.86;97110.84;5053169;28;20210;-77
2023/03/24 02:29:48;;;;;;;3.03;2.10;;;;;;;13.59;79.18;97097.97;5053225;28;20245;-76
2023/03/24 02:32:51;;;;;;;2.70;2.10;;;;;;;13.62;78.23;97092.38;5044731;28;20321;-76
2023/03/24 02:36:14;;;;;;;2.20;2.00;;;;;;;13.66;77.86;97097.22;5015999;28;20213;-76
2023/03/24 02:39:24;;;;;;;3.00;1.93;;;;;;;13.65;77.66;97105.31;4943069;29;20225;-77
2023/03/24 02:42:01;;;;;;;3.17;1.87;;;;;;;13.62;78.36;97103.81;4952570;28;20227;-76
2023/03/24 02:44:34;;;;;;;2.10;1.87;;;;;;;13.63;77.46;97096.69;5049530;28;20736;-76
2023/03/24 02:47:05;;;;;;;2.87;2.00;;;;;;;13.62;77.87;97098.50;5052785;28;20216;-76
2023/03/24 02:49:38;;;;;;;2.30;1.93;;;;;;;13.61;77.72;97090.66;5052446;28;20241;-76
2023/03/24 02:52:12;;;;;;;1.90;1.70;;;;;;;13.58;76.95;97083.84;5052752;28;20310;-76
2023/03/24 02:54:44;;;;;;;2.77;1.80;;;;;;;13.60;77.50;97096.97;5052723;28;20217;-76
2023/03/24 02:57:18;;;;;;;3.10;1.80;;;;;;;13.60;76.93;97089.84;5052887;28;20225;-76
2023/03/24 02:59:50;;;;;;;2.30;2.03;;;;;;;13.58;77.72;97091.81;5052631;28;20204;-76
2023/03/24 03:02:20;;;;;;;2.07;1.87;;;;;;;13.57;76.62;97081.34;5052535;28;20314;-76
2023/03/24 03:04:51;;;;;;;3.23;1.77;;;;;;;13.61;76.50;97088.00;5053212;28;20227;-76
2023/03/24 03:07:21;;;;;;;1.70;1.60;;;;;;;13.63;75.83;97078.09;5052446;28;20254;-76
2023/03/24 03:09:55;;;;;;;6.03;1.93;;;;;;;13.75;74.27;97066.28;5052205;28;20211;-76
2023/03/24 03:12:27;;;;;;;2.13;1.70;;;;;;;13.85;73.26;97051.94;5052554;28;20322;-76
2023/03/24 03:14:59;;;;;;;2.33;1.70;;;;;;;13.92;73.32;97052.97;5052608;28;20250;-77
2023/03/24 03:17:31;;;;;;;2.40;1.80;;;;;;;14.02;71.73;97056.41;5052226;28;20211;-77
2023/03/24 03:20:06;;;;;;;1.83;1.70;;;;;;;14.06;72.33;97051.63;5052349;28;20209;-76
2023/03/24 03:22:41;;;;;;;2.67;1.70;;;;;;;14.08;72.72;97062.91;5051947;28;20322;-76
2023/03/24 03:25:09;;;;;;;2.03;1.77;;;;;;;14.08;72.32;97052.28;5052458;28;20231;-76
2023/03/24 03:27:40;;;;;;;1.73;1.40;;;;;;;14.13;72.00;97044.69;5051946;28;20307;-76
2023/03/24 03:30:12;;;;;;;2.57;1.80;;;;;;;14.09;72.50;97038.84;5051765;28;20725;-77
2023/03/24 03:32:44;;;;;;;1.60;1.50;;;;;;;14.10;71.51;97024.59;5051738;28;20237;-76
2023/03/24 03:35:16;;;;;;;2.20;1.60;;;;;;;14.14;70.70;97030.41;5052254;28;20202;-76
2023/03/24 03:37:50;;;;;;;2.23;1.50;;;;;;;14.19;71.37;97033.47;5052067;28;20628;-76
2023/03/24 03:40:22;;;;;;;1.60;1.50;;;;;;;14.17;71.72;97046.06;5051865;28;20210;-77
2023/03/24 03:42:50;;;;;;;1.87;1.70;;;;;;;14.15;71.56;97048.03;5051841;28;20266;-77
2023/03/24 03:45:17;;;;;;;2.43;1.73;;;;;;;14.23;71.22;97050.81;5051901;28;20258;-76
2023/03/24 03:47:45;;;;;;;1.80;1.60;;;;;;;14.18;71.82;97059.19;5051643;28;20244;-76
2023/03/24 03:50:12;;;;;;;1.90;1.63;;;;;;;14.07;73.30;97062.09;5051692;28;20251;-76
2023/03/24 03:52:40;;;;;;;2.03;1.80;;;;;;;14.00;73.92;97060.19;5051660;28;20661;-76
2023/03/24 03:55:08;;;;;;;2.10;1.60;;;;;;;13.98;73.98;97062.16;5051654;28;20217;-76
2023/03/24 03:57:36;;;;;;;3.47;2.00;;;;;;;13.96;73.20;97058.81;5051493;28;20314;-76
2023/03/24 04:00:07;;;;;;;2.07;1.77;;;;;;;13.93;73.32;97053.84;5051071;28;20218;-76
2023/03/24 04:02:46;;;;;;;2.00;1.43;;;;;;;13.89;73.75;97055.13;5051032;28;20854;-77
2023/03/24 04:05:24;;;;;;;2.60;1.50;;;;;;;13.89;73.88;97063.09;5051558;28;20318;-76
2023/03/24 04:08:07;;;;;;;1.87;1.70;;;;;;;13.91;73.92;97066.41;5051552;28;20211;-76
2023/03/24 04:10:51;;;;;;;3.07;1.50;;;;;;;13.88;73.86;97066.72;5051701;28;20289;-76
2023/03/24 04:13:28;;;;;;;2.60;1.53;;;;;;;13.89;74.26;97063.09;5051471;28;20777;-76
2023/03/24 04:16:00;;;;;;;1.90;1.70;;;;;;;13.91;73.33;97058.44;5051446;28;20214;-76
2023/03/24 04:18:42;;;;;;;1.90;1.70;;;;;;;13.93;72.79;97052.00;5051457;28;20234;-76
2023/03/24 04:21:32;;;;;;;2.03;1.40;;;;;;;13.96;72.14;97058.81;5051076;28;20246;-76
2023/03/24 04:24:09;;;;;;;2.40;1.80;;;;;;;13.98;71.33;97048.88;5051181;28;20301;-77
2023/03/24 04:26:45;;;;;;;2.27;1.50;;;;;;;14.03;70.48;97046.59;5051421;28;20261;-76
2023/03/24 04:29:18;;;;;;;2.17;1.67;;;;;;;14.12;70.13;97037.72;5050893;28;20752;-76
2023/03/24 04:31:52;;;;;;;1.70;1.60;;;;;;;14.14;69.79;97038.38;5051061;28;20323;-77
2023/03/24 04:34:21;;;;;;;1.47;1.37;;;;;;;14.11;70.29;97036.06;5051163;28;20298;-76
2023/03/24 04:36:53;;;;;;;2.27;1.70;;;;;;;14.11;70.71;97041.38;5051389;28;20302;-76
2023/03/24 04:39:26;;;;;;;2.37;2.00;;;;;;;14.07;71.25;97032.03;5051043;28;20270;-76
2023/03/24 04:41:55;;;;;;;2.00;1.77;;;;;;;14.13;70.47;97026.09;5051054;28;20229;-76
2023/03/24 04:44:22;;;;;;;2.97;1.70;;;;;;;14.08;70.89;97036.34;5051188;28;20227;-76
2023/03/24 04:46:51;;;;;;;2.13;1.53;;;;;;;14.06;71.21;97033.84;5051198;28;20236;-76
2023/03/24 04:49:18;;;;;;;2.00;1.67;;;;;;;14.00;71.84;97047.72;5050916;28;20203;-76
2023/03/24 04:51:46;;;;;;;2.07;1.87;;;;;;;13.96;72.00;97048.19;5051096;28;20292;-76
2023/03/24 04:54:12;;;;;;;1.97;1.63;;;;;;;14.00;71.63;97036.28;5050824;28;20207;-76
2023/03/24 04:56:44;;;;;;;1.40;1.30;;;;;;;14.02;71.13;97035.16;5051227;28;20254;-76
2023/03/24 04:59:11;;;;;;;2.90;1.70;;;;;;;14.04;70.74;97034.97;5051110;28;20255;-76
2023/03/24 05:01:38;;;;;;;2.33;1.50;;;;;;;14.10;70.21;97045.00;5051246;28;20220;-76
2023/03/24 05:04:07;;;;;;;2.63;1.60;;;;;;;14.16;70.16;97052.34;5051065;28;20212;-76
2023/03/24 05:06:33;;;;;;;1.50;1.30;;;;;;;14.20;70.17;97059.91;5050967;28;20334;-76
2023/03/24 05:09:00;;;;;;;2.53;1.60;;;;;;;14.26;70.95;97083.22;5050773;28;20689;-76
2023/03/24 05:11:27;;;;;;;1.60;1.50;;;;;;;14.36;71.06;97083.13;5050700;28;20743;-76
2023/03/24 05:13:54;;;;;;;2.27;1.57;;;;;;;14.46;70.13;97090.00;5053084;28;20216;-76
2023/03/24 05:16:21;;;;;;;3.03;1.90;;;;;;;14.54;70.93;97107.84;5055031;28;20211;-76
2023/03/24 05:18:47;;;;;;;1.60;1.43;;;;;;;14.63;70.69;97123.72;5054671;28;20217;-76
2023/03/24 05:21:15;;;;;;;2.33;1.57;;;;;;;14.78;70.04;97126.66;5054649;28;20310;-76
2023/03/24 05:23:42;;;;;;;2.47;1.50;;;;;;;14.85;71.18;97133.81;5054737;28;20208;-76
2023/03/24 05:26:09;;;;;;;1.80;1.60;;;;;;;14.76;74.10;97160.53;5054731;28;20230;-76
2023/03/24 05:28:35;;;;;;;2.60;1.73;;;;;;;14.61;77.24;97200.13;5054653;28;20211;-76
2023/03/24 05:31:02;;;;;;;3.57;1.87;;;;;;;14.44;78.30;97210.78;5054092;28;20218;-76
2023/03/24 05:33:28;;;;;;;2.90;1.80;;;;;;;14.28;80.54;97211.47;5068346;22;20694;-79
2023/03/24 05:35:55;;;;;;;3.23;1.90;;;;;;;14.06;84.00;97225.13;5054451;28;20207;-79
2023/03/24 05:38:23;;;;;;;3.03;2.10;;;;;;;13.85;83.48;97224.56;5054199;28;20219;-80
2023/03/24 05:40:49;;;;;;;2.40;2.20;;;;;;;13.56;86.24;97228.34;5053883;28;20215;-80
2023/03/24 05:43:18;;;;;;;2.93;2.40;;;;;;;13.31;88.83;97221.00;5054008;28;20225;-80
2023/03/24 05:45:45;;;;;;;3.63;2.50;;;;;;;13.05;92.14;97233.25;5053914;28;20236;-79
2023/03/24 05:48:11;;;;;;;3.13;2.20;;;;;;;12.89;95.36;97232.97;5054000;28;20236;-80
2023/03/24 05:50:38;;;;;;;2.83;2.30;;;;;;;12.75;97.95;97228.09;5053721;28;20212;-81
2023/03/24 05:53:04;;;;;;;2.90;2.40;;;;;;;12.71;98.75;97242.63;5053998;28;20233;-80
2023/03/24 05:55:32;;;;;;;3.10;2.23;;;;;;;12.68;100.00;97240.25;5054283;28;20257;-80
2023/03/24 05:58:00;;;;;;;2.70;2.50;;;;;;;12.65;100.00;97244.00;5053988;28;20208;-80
2023/03/24 06:00:29;;;;;;;3.50;2.40;;;;;;;12.64;100.00;97244.97;5053563;28;20272;-79
2023/03/24 06:02:56;;;;;;;2.70;2.43;;;;;;;12.64;100.00;97246.78;5053663;28;20238;-79
2023/03/24 06:05:23;;;;;;;2.87;2.30;;;;;;;12.64;100.00;97246.78;5053941;28;20228;-80
2023/03/24 06:07:49;;;;;;;4.07;2.70;;;;;;;12.59;100.00;97243.75;5054035;28;20223;-80
2023/03/24 06:10:17;;;;;;;3.60;2.50;;;;;;;12.60;100.00;97256.00;5053762;28;20210;-80
2023/03/24 06:12:45;;;;;;;2.10;1.90;;;;;;;12.60;100.00;97243.59;5053995;28;20232;-80
2023/03/24 06:15:16;;;;;;;2.67;2.30;;;;;;;12.58;100.00;97236.75;5055915;28;20225;-79
2023/03/24 06:17:44;;;;;;;2.50;2.23;;;;;;;12.57;100.00;97240.38;5055406;28;20206;-80
2023/03/24 06:20:14;;;;;;;3.03;2.30;;;;;;;12.58;100.00;97247.34;5054257;28;20308;-79
2023/03/24 06:22:43;;;;;;;2.77;2.40;;;;;;;12.65;100.00;97237.88;5053599;28;20231;-78
2023/03/24 06:25:09;;;;;;;2.23;2.03;;;;;;;12.61;100.00;97232.03;5052560;28;20230;-79
2023/03/24 06:27:36;;;;;;;2.30;2.10;;;;;;;12.61;100.00;97228.53;5053308;28;20211;-79
2023/03/24 06:30:05;;;;;;;2.53;2.10;;;;;;;12.61;100.00;97216.13;5052832;28;20237;-80
2023/03/24 06:32:31;;;;;;;2.53;2.33;;;;;;;12.61;100.00;97221.44;5053116;28;20622;-78
2023/03/24 06:34:58;;;;;;;2.97;2.23;;;;;;;12.62;100.00;97217.78;5053157;28;20219;-76
2023/03/24 06:37:26;;;;;;;2.57;2.13;;;;;;;12.64;100.00;97212.31;5053359;28;20207;-78
2023/03/24 06:39:52;;;;;;;3.27;2.70;;;;;;;12.69;100.00;97215.41;5052879;28;20257;-76
2023/03/24 06:42:19;;;;;;;3.83;2.87;;;;;;;12.67;100.00;97217.34;5052831;28;20230;-79
2023/03/24 06:44:45;;;;;;;3.13;2.37;;;;;;;12.65;100.00;97216.69;5052905;28;20305;-76
2023/03/24 06:47:13;;;;;;;3.67;2.50;;;;;;;12.67;100.00;97215.56;5052793;28;20233;-78
2023/03/24 06:49:39;;;;;;;2.80;2.50;;;;;;;12.71;100.00;97226.72;5051663;28;20211;-77
2023/03/24 06:52:06;;;;;;;3.03;2.23;;;;;;;12.76;100.00;97230.59;5053095;28;20235;-77
2023/03/24 06:54:32;;;;;;;2.83;2.40;;;;;;;12.80;100.00;97226.72;5052797;28;20214;-77
2023/03/24 06:56:59;;;;;;;2.27;2.07;;;;;;;12.81;100.00;97233.69;5052557;28;20214;-78
2023/03/24 06:59:27;;;;;;;3.40;2.60;;;;;;;12.88;100.00;97234.78;5052450;28;20262;-78
2023/03/24 07:01:54;;;;;;;2.23;2.03;;;;;;;12.94;100.00;97238.66;5052715;28;20664;-78
2023/03/24 07:04:24;;;;;;;2.80;2.33;;;;;;;12.99;100.00;97237.31;5052525;28;20219;-78
2023/03/24 07:06:51;;;;;;;2.13;1.93;;;;;;;13.02;100.00;97236.19;5052309;28;20733;-77
2023/03/24 07:09:17;;;;;;;2.53;2.20;;;;;;;13.05;100.00;97241.19;5052125;28;20201;-77
2023/03/24 07:11:44;;;;;;;3.57;2.77;;;;;;;13.12;100.00;97242.28;5052368;28;20637;-76
2023/03/24 07:14:10;;;;;;;2.77;2.33;;;;;;;13.17;100.00;97240.06;5052617;28;20570;-79
2023/03/24 07:16:37;;;;;;;2.30;2.10;;;;;;;13.18;100.00;97247.03;5052553;28;20207;-79
2023/03/24 07:19:04;;;;;;;3.33;2.40;;;;;;;13.15;100.00;97242.03;5050851;28;20586;-78
2023/03/24 07:21:31;;;;;;;2.60;2.27;;;;;;;13.12;100.00;97244.94;5050722;28;20231;-76
2023/03/24 07:23:58;;;;;;;3.07;2.67;;;;;;;13.07;100.00;97244.56;5051266;28;20693;-78
2023/03/24 07:26:25;;;;;;;4.27;2.63;;;;;;;13.09;100.00;97251.38;5051198;28;20238;-77
2023/03/24 07:28:51;;;;;;;3.50;2.63;;;;;;;13.01;100.00;97256.56;5050017;28;20204;-76
2023/03/24 07:31:18;;;;;;;2.77;2.33;;;;;;;12.98;100.00;97262.16;5050264;28;20211;-74
2023/03/24 07:33:44;;;;;;;3.13;2.67;;;;;;;12.97;100.00;97259.66;5051056;28;20243;-74
2023/03/24 07:36:11;;;;;;;3.17;2.40;;;;;;;12.96;100.00;97271.25;5049536;28;20216;-78
2023/03/24 07:38:39;;;;;;;2.63;2.43;;;;;;;12.98;100.00;97274.59;5048643;28;20213;-78
2023/03/24 07:41:06;;;;;;;4.77;2.70;;;;;;;12.96;100.00;97271.25;5051204;28;20310;-77
2023/03/24 07:43:32;;;;;;;2.60;2.40;;;;;;;12.95;100.00;97280.16;5050548;28;20236;-76
2023/03/24 07:45:59;;;;;;;2.50;2.27;;;;;;;12.96;100.00;97279.19;5048667;28;20233;-74
2023/03/24 07:48:26;;;;;;;4.10;2.70;;;;;;;12.96;100.00;97277.38;5050910;28;20215;-75
2023/03/24 07:50:53;;;;;;;2.50;2.30;;;;;;;12.97;100.00;97288.81;5050038;28;20213;-75
2023/03/24 07:53:19;;;;;;;2.90;2.40;;;;;;;12.94;100.00;97275.78;5048543;28;20239;-78
2023/03/24 07:55:48;;;;;;;2.90;2.53;;;;;;;12.88;100.00;97289.63;5050251;28;20684;-77
2023/03/24 07:58:14;;;;;;;3.47;2.50;;;;;;;12.98;100.00;97287.84;5070124;28;20209;-77
2023/03/24 08:00:41;;;;;;;2.60;2.40;;;;;;;12.95;100.00;97285.44;5070492;28;20238;-76
2023/03/24 08:03:12;;;;;;;3.20;2.40;;;;;;;12.95;100.00;97282.81;5070743;28;20303;-76
2023/03/24 08:05:40;;;;;;;5.23;2.87;;;;;;;12.92;100.00;97289.22;5058759;28;20749;-76
2023/03/24 08:08:06;;;;;;;3.03;2.50;;;;;;;12.93;100.00;97284.72;5050466;28;20262;-77
2023/03/24 08:10:33;;;;;;;3.00;2.70;;;;;;;12.94;100.00;97291.72;5050123;28;20215;-76
2023/03/24 08:13:01;;;;;;;3.33;2.53;;;;;;;12.94;100.00;97281.94;5050458;28;20229;-76
2023/03/24 08:15:28;;;;;;;3.77;2.50;;;;;;;12.92;100.00;97293.69;5050129;28;20670;-76
2023/03/24 08:17:56;;;;;;;4.00;2.80;;;;;;;12.94;100.00;97297.88;5042827;28;20325;-77
2023/03/24 08:20:24;;;;;;;3.73;2.90;;;;;;;13.01;100.00;97287.56;5033731;28;20481;-75
2023/03/24 08:22:52;;;;;;;5.17;2.70;;;;;;;13.01;100.00;97287.56;5044795;28;21062;-77
2023/03/24 08:25:21;;;;;;;3.00;2.73;;;;;;;13.02;100.00;97262.72;5050848;28;20523;-75
2023/03/24 08:27:47;;;;;;;3.27;2.60;;;;;;;13.03;100.00;97241.34;5061403;28;20226;-78
2023/03/24 08:30:18;;;;;;;3.17;2.70;;;;;;;13.08;100.00;97220.53;5057041;28;20224;-76
2023/03/24 08:32:47;;;;;;;3.10;2.60;;;;;;;13.02;100.00;97225.59;5049692;28;20238;-76
2023/03/24 08:35:15;;;;;;;3.53;2.80;;;;;;;13.00;100.00;97206.31;5050461;28;20217;-75
2023/03/24 08:37:44;;;;;;;3.07;2.77;;;;;;;13.03;100.00;97185.63;5050435;28;20221;-75
2023/03/24 08:40:12;;;;;;;4.27;2.63;;;;;;;13.11;100.00;97135.38;5066274;28;20293;-75
2023/03/24 08:42:40;;;;;;;3.50;2.70;;;;;;;13.16;100.00;97172.06;5070438;28;20686;-77
2023/03/24 08:45:08;;;;;;;3.53;2.63;;;;;;;13.14;100.00;97177.50;5070619;28;20626;-76
2023/03/24 08:47:36;;;;;;;3.13;2.83;;;;;;;13.20;100.00;97195.50;5070069;28;20322;-75
2023/03/24 08:50:03;;;;;;;4.83;3.17;;;;;;;13.23;100.00;97215.59;5074082;28;20210;-78
2023/03/24 08:52:30;;;;;;;3.57;2.90;;;;;;;13.28;100.00;97226.63;5073516;28;20269;-74
2023/03/24 08:54:57;;;;;;;3.83;2.90;;;;;;;13.37;100.00;97231.06;5072429;28;20289;-78
2023/03/24 08:57:23;;;;;;;4.33;3.00;;;;;;;13.39;100.00;97223.81;5071699;28;20209;-75
2023/03/24 08:59:50;;;;;;;3.80;3.03;;;;;;;13.44;100.00;97238.28;5073780;28;20218;-77
2023/03/24 09:02:16;;;;;;;3.33;2.90;;;;;;;13.52;100.00;97248.19;5073651;28;20738;-75
2023/03/24 09:04:44;;;;;;;4.23;2.60;;;;;;;13.60;100.00;97258.91;5074120;28;20212;-77
2023/03/24 09:07:11;;;;;;;3.73;2.63;;;;;;;13.71;100.00;97256.09;5074081;28;20292;-77
2023/03/24 09:09:40;;;;;;;3.03;2.10;;;;;;;13.75;100.00;97247.66;5073821;28;20678;-76
2023/03/24 09:12:08;;;;;;;2.97;2.50;;;;;;;13.88;100.00;97248.16;5073538;28;20234;-79
2023/03/24 09:14:35;;;;;;;2.65;2.30;;;;;;;13.94;100.00;97246.75;5073830;28;20879;-77
2023/03/24 09:17:01;;;;;;;3.50;2.00;;;;;;;14.09;100.00;97245.25;5074495;28;20220;-75
2023/03/24 09:19:28;;;;;;;2.53;1.93;;;;;;;14.14;100.00;97256.28;5074110;28;20212;-76
2023/03/24 09:21:59;;;;;;;2.37;2.07;;;;;;;14.15;100.00;97260.59;5074501;28;20232;-76
2023/03/24 09:24:25;;;;;;;2.30;2.00;;;;;;;14.07;100.00;97252.56;5074458;28;20209;-74
2023/03/24 09:26:52;;;;;;;3.03;1.90;;;;;;;14.08;100.00;97259.53;5074430;28;20237;-77
2023/03/24 09:29:18;;;;;;;2.27;2.07;;;;;;;14.02;100.00;97265.44;5073888;28;20222;-77
2023/03/24 09:31:45;;;;;;;3.33;1.90;;;;;;;14.02;100.00;97266.28;5074634;28;20225;-76
2023/03/24 09:34:11;;;;;;;1.97;1.77;;;;;;;13.98;100.00;97266.72;5074373;28;20220;-76
2023/03/24 09:36:41;;;;;;;2.20;2.00;;;;;;;13.99;100.00;97266.56;5074337;28;20209;-76
2023/03/24 09:39:11;;;;;;;2.00;1.90;;;;;;;14.03;100.00;97261.78;5073880;28;20210;-74
2023/03/24 09:41:38;;;;;;;2.47;2.00;;;;;;;14.08;100.00;97247.09;5074130;28;20586;-75
2023/03/24 09:44:14;;;;;;;2.17;1.97;;;;;;;14.15;100.00;97242.84;5074211;28;20215;-74
2023/03/24 09:46:45;;;;;;;1.83;1.63;;;;;;;14.37;100.00;97254.91;5080557;28;20237;-75
2023/03/24 09:49:16;;;;;;;1.97;1.80;;;;;;;14.37;100.00;97247.75;5081653;28;20210;-76
2023/03/24 09:51:44;;;;;;;1.73;1.60;;;;;;;14.40;100.00;97254.59;5075298;28;20718;-76
2023/03/24 09:54:21;;;;;;;1.95;1.85;;;;;;;14.49;100.00;97259.03;5072738;28;20434;-76
2023/03/24 09:56:51;;;;;;;2.97;1.93;;;;;;;14.51;100.00;97247.25;5074034;28;20202;-75
2023/03/24 09:59:20;;;;;;;2.53;1.70;;;;;;;14.77;100.00;97264.13;5073013;28;20207;-77
2023/03/24 10:01:47;;;;;;;3.80;1.70;;;;;;;14.96;100.00;97255.16;5073256;28;20206;-76
2023/03/24 10:04:16;;;;;;;2.83;2.10;;;;;;;15.16;100.00;97243.31;5073674;28;20674;-77
2023/03/24 10:06:43;;;;;;;2.53;1.73;;;;;;;15.32;100.00;97228.31;5073608;28;20257;-76
2023/03/24 10:09:24;;;;;;;1.80;1.70;;;;;;;15.63;99.83;97252.66;5073261;28;20217;-76
2023/03/24 10:12:01;;;;;;;2.03;1.77;;;;;;;15.86;96.67;97240.41;5073671;28;20227;-76
2023/03/24 10:14:44;;;;;;;2.03;1.80;;;;;;;16.03;95.52;97235.81;5073575;28;20641;-75
2023/03/24 10:17:20;;;;;;;1.93;1.70;;;;;;;16.17;91.56;97218.38;5073472;28;20215;-76
2023/03/24 10:19:53;;;;;;;2.23;1.90;;;;;;;16.15;90.07;97221.19;5073384;28;20203;-75
2023/03/24 10:22:24;;;;;;;2.30;1.77;;;;;;;16.00;87.91;97231.84;5073406;28;20244;-75
2023/03/24 10:24:59;;;;;;;2.13;1.73;;;;;;;15.95;90.37;97242.13;5073406;28;20215;-76
2023/03/24 10:27:31;;;;;;;1.83;1.67;;;;;;;15.94;92.35;97235.13;5073246;28;20227;-76
2023/03/24 10:30:05;;;;;;;2.00;1.80;;;;;;;15.78;91.11;97237.72;5073058;28;20211;-74
2023/03/24 10:32:34;;;;;;;1.40;1.30;;;;;;;15.81;85.08;97224.06;5073178;28;20289;-75
2023/03/24 10:35:08;;;;;;;1.43;1.33;;;;;;;15.79;85.48;97242.06;5073195;28;20211;-75
2023/03/24 10:37:34;;;;;;;1.60;1.40;;;;;;;15.71;82.91;97226.03;5073190;28;20206;-75
2023/03/24 10:40:12;;;;;;;2.23;1.33;;;;;;;15.87;82.65;97228.75;5072942;28;20218;-76
2023/03/24 10:42:38;;;;;;;1.30;1.20;;;;;;;15.92;82.42;97226.44;5073311;28;20230;-75
2023/03/24 10:45:06;;;;;;;2.03;1.50;;;;;;;15.97;84.76;97234.81;5072852;28;20213;-76
2023/03/24 10:47:35;;;;;;;1.60;1.47;;;;;;;15.93;81.80;97220.13;5072952;28;20581;-75
2023/03/24 10:50:05;;;;;;;1.20;1.10;;;;;;;15.86;80.89;97221.75;5072449;28;20208;-73
2023/03/24 10:52:39;;;;;;;1.50;1.30;;;;;;;15.95;83.20;97234.13;5072971;28;20227;-75
2023/03/24 10:55:07;;;;;;;1.70;1.20;;;;;;;16.06;80.31;97229.34;5073078;28;20233;-75
2023/03/24 10:57:34;;;;;;;2.17;1.23;;;;;;;16.18;79.72;97238.72;5072829;28;20673;-77
2023/03/24 11:00:10;;;;;;;2.03;1.13;;;;;;;16.23;78.14;97242.56;5072323;28;20211;-75
2023/03/24 11:02:37;;;;;;;1.23;1.13;;;;;;;16.24;78.38;97246.91;5072656;28;20604;-75
2023/03/24 11:05:16;;;;;;;1.30;1.20;;;;;;;16.27;75.89;97233.22;5072702;28;20207;-75
2023/03/24 11:07:46;;;;;;;2.13;1.00;;;;;;;16.23;76.23;97234.56;5072701;28;20263;-78
2023/03/24 11:10:17;;;;;;;1.67;1.10;;;;;;;16.23;75.81;97244.41;5072236;28;20563;-78
2023/03/24 11:13:01;;;;;;;1.43;0.90;;;;;;;16.43;77.43;97243.97;5072296;28;20729;-77
2023/03/24 11:15:29;;;;;;;1.40;1.07;;;;;;;16.52;76.92;97245.66;5072433;28;20211;-78
2023/03/24 11:17:58;;;;;;;1.93;1.10;;;;;;;16.59;76.67;97224.50;5072641;28;20211;-78
2023/03/24 11:20:30;;;;;;;1.13;1.00;;;;;;;16.67;74.51;97219.16;5072108;28;20298;-75
2023/03/24 11:23:01;;;;;;;0.93;0.90;;;;;;;16.78;73.61;97218.84;5072214;28;20231;-75
2023/03/24 11:25:31;;;;;;;0.97;0.93;;;;;;;16.74;73.53;97234.34;5072171;28;20207;-76
2023/03/24 11:28:01;;;;;;;1.57;1.20;;;;;;;16.75;74.59;97232.50;5072106;28;20234;-76
2023/03/24 11:30:32;;;;;;;1.10;1.00;;;;;;;16.79;73.35;97240.03;5072004;28;20219;-75
2023/03/24 11:32:59;;;;;;;1.50;1.20;;;;;;;16.85;72.94;97233.19;5092422;22;20633;-78
2023/03/24 11:35:27;;;;;;;1.10;0.90;;;;;;;17.08;73.24;97239.53;5091720;28;20213;-78
2023/03/24 11:37:54;;;;;;;1.10;1.00;;;;;;;17.16;71.54;97221.69;5091837;28;20250;-76
2023/03/24 11:40:25;;;;;;;1.13;1.03;;;;;;;17.27;70.46;97218.66;5091457;28;20386;-78
2023/03/24 11:42:57;;;;;;;1.10;1.00;;;;;;;17.18;73.57;97243.69;5091857;28;20234;-76